sensor_id;sensor_type;location;lat;lon;timestamp;P1;durP1;ratioP1;P2;durP2;ratioP2
9124;SDS011;4597;48.730;9.114;2024-03-23T00:55:34;5.77;;;4.10;;
9124;SDS011;4597;48.730;9.114;2024-03-23T00:57:59;3.80;;;3.47;;
9124;SDS011;4597;48.730;9.114;2024-03-23T01:00:25;5.13;;;4.53;;
9124;SDS011;4597;48.730;9.114;2024-03-23T01:02:50;4.50;;;4.10;;
9124;SDS011;4597;48.730;9.114;2024-03-23T01:05:16;4.47;;;3.80;;
9124;SDS011;4597;48.730;9.114;2024-03-23T01:07:41;5.17;;;4.13;;
9124;SDS011;4597;48.730;9.114;2024-03-23T01:10:07;4.90;;;4.37;;
9124;SDS011;4597;48.730;9.114;2024-03-23T01:12:32;3.60;;;3.20;;
9124;SDS011;4597;48.730;9.114;2024-03-23T01:14:58;2.87;;;2.57;;
9124;SDS011;4597;48.730;9.114;2024-03-23T01:17:23;2.30;;;2.10;;
9124;SDS011;4597;48.730;9.114;2024-03-23T01:19:49;2.20;;;2.10;;
9124;SDS011;4597;48.730;9.114;2024-03-23T01:22:14;2.70;;;2.30;;
9124;SDS011;4597;48.730;9.114;2024-03-23T01:24:40;2.40;;;2.20;;
9124;SDS011;4597;48.730;9.114;2024-03-23T01:27:05;1.93;;;1.83;;
9124;SDS011;4597;48.730;9.114;2024-03-23T01:29:31;1.70;;;1.60;;
9124;SDS011;4597;48.730;9.114;2024-03-23T01:31:56;2.07;;;1.90;;
9124;SDS011;4597;48.730;9.114;2024-03-23T01:34:22;2.23;;;2.03;;
9124;SDS011;4597;48.730;9.114;2024-03-23T01:36:47;1.90;;;1.80;;
9124;SDS011;4597;48.730;9.114;2024-03-23T01:39:13;2.20;;;2.07;;
9124;SDS011;4597;48.730;9.114;2024-03-23T01:41:39;2.47;;;1.90;;
9124;SDS011;4597;48.730;9.114;2024-03-23T01:44:07;2.27;;;2.17;;
9124;SDS011;4597;48.730;9.114;2024-03-23T01:46:42;2.37;;;2.27;;
9124;SDS011;4597;48.730;9.114;2024-03-23T01:49:08;3.37;;;2.40;;
9124;SDS011;4597;48.730;9.114;2024-03-23T01:51:34;2.77;;;2.47;;
9124;SDS011;4597;48.730;9.114;2024-03-23T01:54:04;2.50;;;2.30;;
9124;SDS011;4597;48.730;9.114;2024-03-23T01:56:34;2.50;;;2.30;;
9124;SDS011;4597;48.730;9.114;2024-03-23T01:59:00;2.60;;;2.40;;
9124;SDS011;4597;48.730;9.114;2024-03-23T02:01:26;2.30;;;2.20;;
9124;SDS011;4597;48.730;9.114;2024-03-23T02:03:52;2.73;;;2.53;;
9124;SDS011;4597;48.730;9.114;2024-03-23T02:06:18;2.10;;;1.90;;
9124;SDS011;4597;48.730;9.114;2024-03-23T02:08:43;2.60;;;2.23;;
9124;SDS011;4597;48.730;9.114;2024-03-23T02:11:09;2.80;;;2.60;;
9124;SDS011;4597;48.730;9.114;2024-03-23T02:13:34;3.17;;;2.87;;
9124;SDS011;4597;48.730;9.114;2024-03-23T02:16:00;5.97;;;4.27;;
9124;SDS011;4597;48.730;9.114;2024-03-23T02:18:26;6.97;;;4.43;;
9124;SDS011;4597;48.730;9.114;2024-03-23T02:20:51;5.87;;;5.33;;
9124;SDS011;4597;48.730;9.114;2024-03-23T02:23:17;5.27;;;4.77;;
9124;SDS011;4597;48.730;9.114;2024-03-23T02:25:46;4.20;;;3.70;;
9124;SDS011;4597;48.730;9.114;2024-03-23T02:28:12;4.93;;;4.03;;
9124;SDS011;4597;48.730;9.114;2024-03-23T02:30:37;5.23;;;4.30;;
9124;SDS011;4597;48.730;9.114;2024-03-23T02:33:03;3.60;;;3.30;;
9124;SDS011;4597;48.730;9.114;2024-03-23T02:35:29;3.43;;;3.10;;
9124;SDS011;4597;48.730;9.114;2024-03-23T02:37:55;3.37;;;3.07;;
9124;SDS011;4597;48.730;9.114;2024-03-23T02:40:22;4.20;;;3.77;;
9124;SDS011;4597;48.730;9.114;2024-03-23T02:42:48;4.23;;;3.83;;
9124;SDS011;4597;48.730;9.114;2024-03-23T02:45:14;4.03;;;3.50;;
9124;SDS011;4597;48.730;9.114;2024-03-23T02:47:39;4.23;;;3.83;;
9124;SDS011;4597;48.730;9.114;2024-03-23T02:50:05;3.90;;;3.50;;
9124;SDS011;4597;48.730;9.114;2024-03-23T02:52:31;3.10;;;2.90;;
9124;SDS011;4597;48.730;9.114;2024-03-23T02:54:57;3.73;;;2.90;;
9124;SDS011;4597;48.730;9.114;2024-03-23T02:57:23;3.13;;;2.93;;
9124;SDS011;4597;48.730;9.114;2024-03-23T02:59:48;3.80;;;3.10;;
9124;SDS011;4597;48.730;9.114;2024-03-23T03:02:15;4.63;;;3.10;;
9124;SDS011;4597;48.730;9.114;2024-03-23T03:04:40;3.47;;;3.10;;
9124;SDS011;4597;48.730;9.114;2024-03-23T03:07:06;4.33;;;3.87;;
9124;SDS011;4597;48.730;9.114;2024-03-23T03:09:32;7.10;;;4.50;;
9124;SDS011;4597;48.730;9.114;2024-03-23T03:11:58;5.33;;;3.80;;
9124;SDS011;4597;48.730;9.114;2024-03-23T03:14:23;5.13;;;4.57;;
9124;SDS011;4597;48.730;9.114;2024-03-23T03:16:49;4.13;;;3.73;;
9124;SDS011;4597;48.730;9.114;2024-03-23T03:19:14;4.57;;;4.17;;
9124;SDS011;4597;48.730;9.114;2024-03-23T03:21:41;6.20;;;4.40;;
9124;SDS011;4597;48.730;9.114;2024-03-23T03:24:07;4.97;;;3.43;;
9124;SDS011;4597;48.730;9.114;2024-03-23T03:26:32;3.67;;;3.37;;
9124;SDS011;4597;48.730;9.114;2024-03-23T03:28:58;3.80;;;3.50;;
9124;SDS011;4597;48.730;9.114;2024-03-23T03:31:23;3.87;;;3.57;;
9124;SDS011;4597;48.730;9.114;2024-03-23T03:33:49;3.77;;;3.37;;
9124;SDS011;4597;48.730;9.114;2024-03-23T03:36:16;4.30;;;4.00;;
9124;SDS011;4597;48.730;9.114;2024-03-23T03:38:41;3.53;;;3.23;;
9124;SDS011;4597;48.730;9.114;2024-03-23T03:41:07;3.50;;;3.20;;
9124;SDS011;4597;48.730;9.114;2024-03-23T03:43:33;3.27;;;2.97;;
9124;SDS011;4597;48.730;9.114;2024-03-23T03:45:59;3.17;;;2.80;;
9124;SDS011;4597;48.730;9.114;2024-03-23T03:48:25;2.87;;;2.67;;
9124;SDS011;4597;48.730;9.114;2024-03-23T03:50:51;3.20;;;2.50;;
9124;SDS011;4597;48.730;9.114;2024-03-23T03:53:18;2.73;;;2.60;;
9124;SDS011;4597;48.730;9.114;2024-03-23T03:55:44;3.70;;;3.40;;
9124;SDS011;4597;48.730;9.114;2024-03-23T03:58:09;4.40;;;4.00;;
9124;SDS011;4597;48.730;9.114;2024-03-23T04:00:35;4.27;;;3.40;;
9124;SDS011;4597;48.730;9.114;2024-03-23T04:03:00;3.23;;;3.00;;
9124;SDS011;4597;48.730;9.114;2024-03-23T04:05:26;3.17;;;2.87;;
9124;SDS011;4597;48.730;9.114;2024-03-23T04:07:52;4.30;;;3.90;;
9124;SDS011;4597;48.730;9.114;2024-03-23T04:10:19;6.23;;;4.37;;
9124;SDS011;4597;48.730;9.114;2024-03-23T04:12:44;4.40;;;4.00;;
9124;SDS011;4597;48.730;9.114;2024-03-23T04:15:10;5.53;;;4.10;;
9124;SDS011;4597;48.730;9.114;2024-03-23T04:17:36;7.13;;;4.73;;
9124;SDS011;4597;48.730;9.114;2024-03-23T04:20:02;5.50;;;4.60;;
9124;SDS011;4597;48.730;9.114;2024-03-23T04:22:30;9.63;;;5.83;;
9124;SDS011;4597;48.730;9.114;2024-03-23T04:24:56;5.37;;;4.70;;
9124;SDS011;4597;48.730;9.114;2024-03-23T04:27:25;5.27;;;4.27;;
9124;SDS011;4597;48.730;9.114;2024-03-23T04:29:50;6.63;;;4.83;;
9124;SDS011;4597;48.730;9.114;2024-03-23T04:32:17;6.93;;;5.47;;
9124;SDS011;4597;48.730;9.114;2024-03-23T04:34:43;6.07;;;4.93;;
9124;SDS011;4597;48.730;9.114;2024-03-23T04:37:09;6.73;;;4.97;;
9124;SDS011;4597;48.730;9.114;2024-03-23T04:39:38;5.00;;;4.23;;
9124;SDS011;4597;48.730;9.114;2024-03-23T04:42:03;5.23;;;4.73;;
9124;SDS011;4597;48.730;9.114;2024-03-23T04:44:30;6.23;;;5.10;;
9124;SDS011;4597;48.730;9.114;2024-03-23T04:46:56;7.90;;;5.17;;
9124;SDS011;4597;48.730;9.114;2024-03-23T04:49:30;6.57;;;4.73;;
9124;SDS011;4597;48.730;9.114;2024-03-23T04:51:56;6.50;;;4.73;;
9124;SDS011;4597;48.730;9.114;2024-03-23T04:54:21;6.17;;;4.70;;
9124;SDS011;4597;48.730;9.114;2024-03-23T04:56:47;6.07;;;4.83;;
9124;SDS011;4597;48.730;9.114;2024-03-23T04:59:12;7.03;;;5.37;;
9124;SDS011;4597;48.730;9.114;2024-03-23T05:01:38;8.30;;;6.20;;
9124;SDS011;4597;48.730;9.114;2024-03-23T05:04:06;7.33;;;5.07;;
9124;SDS011;4597;48.730;9.114;2024-03-23T05:06:32;8.63;;;4.83;;
9124;SDS011;4597;48.730;9.114;2024-03-23T05:08:59;6.90;;;5.50;;
9124;SDS011;4597;48.730;9.114;2024-03-23T05:11:24;7.20;;;5.30;;
9124;SDS011;4597;48.730;9.114;2024-03-23T05:13:50;6.53;;;5.27;;
9124;SDS011;4597;48.730;9.114;2024-03-23T05:16:15;8.27;;;5.80;;
9124;SDS011;4597;48.730;9.114;2024-03-23T05:18:41;8.60;;;5.57;;
9124;SDS011;4597;48.730;9.114;2024-03-23T05:21:07;7.63;;;5.43;;
9124;SDS011;4597;48.730;9.114;2024-03-23T05:23:32;7.47;;;5.70;;
9124;SDS011;4597;48.730;9.114;2024-03-23T05:25:58;6.43;;;4.60;;
9124;SDS011;4597;48.730;9.114;2024-03-23T05:28:23;5.90;;;4.67;;
9124;SDS011;4597;48.730;9.114;2024-03-23T05:30:55;5.80;;;4.80;;
9124;SDS011;4597;48.730;9.114;2024-03-23T05:33:22;6.87;;;4.80;;
9124;SDS011;4597;48.730;9.114;2024-03-23T05:35:55;8.27;;;4.93;;
9124;SDS011;4597;48.730;9.114;2024-03-23T05:38:25;6.47;;;4.83;;
9124;SDS011;4597;48.730;9.114;2024-03-23T05:43:20;6.27;;;4.60;;
9124;SDS011;4597;48.730;9.114;2024-03-23T05:45:52;6.50;;;4.37;;
9124;SDS011;4597;48.730;9.114;2024-03-23T05:48:22;5.00;;;4.03;;
9124;SDS011;4597;48.730;9.114;2024-03-23T05:50:48;5.77;;;3.67;;
9124;SDS011;4597;48.730;9.114;2024-03-23T05:53:17;5.97;;;3.93;;
9124;SDS011;4597;48.730;9.114;2024-03-23T05:55:43;4.30;;;3.40;;
9124;SDS011;4597;48.730;9.114;2024-03-23T05:58:09;5.50;;;3.87;;
9124;SDS011;4597;48.730;9.114;2024-03-23T06:00:35;3.63;;;3.23;;
9124;SDS011;4597;48.730;9.114;2024-03-23T06:03:01;3.63;;;2.90;;
9124;SDS011;4597;48.730;9.114;2024-03-23T06:05:26;3.13;;;2.87;;
9124;SDS011;4597;48.730;9.114;2024-03-23T06:07:52;2.60;;;2.40;;
9124;SDS011;4597;48.730;9.114;2024-03-23T06:10:18;2.97;;;2.40;;
9124;SDS011;4597;48.730;9.114;2024-03-23T06:12:43;2.57;;;2.33;;
9124;SDS011;4597;48.730;9.114;2024-03-23T06:15:11;2.23;;;2.03;;
9124;SDS011;4597;48.730;9.114;2024-03-23T06:17:37;2.30;;;2.10;;
9124;SDS011;4597;48.730;9.114;2024-03-23T06:20:03;2.23;;;1.87;;
9124;SDS011;4597;48.730;9.114;2024-03-23T06:22:29;1.73;;;1.63;;
9124;SDS011;4597;48.730;9.114;2024-03-23T06:24:54;1.00;;;1.00;;
9124;SDS011;4597;48.730;9.114;2024-03-23T06:27:20;2.07;;;1.47;;
9124;SDS011;4597;48.730;9.114;2024-03-23T06:29:45;2.63;;;1.13;;
9124;SDS011;4597;48.730;9.114;2024-03-23T06:32:11;0.60;;;0.60;;
9124;SDS011;4597;48.730;9.114;2024-03-23T06:34:36;1.20;;;1.03;;
9124;SDS011;4597;48.730;9.114;2024-03-23T06:37:02;0.80;;;0.80;;
9124;SDS011;4597;48.730;9.114;2024-03-23T06:39:28;0.63;;;0.63;;
9124;SDS011;4597;48.730;9.114;2024-03-23T06:41:53;0.70;;;0.70;;
9124;SDS011;4597;48.730;9.114;2024-03-23T06:44:20;0.70;;;0.70;;
9124;SDS011;4597;48.730;9.114;2024-03-23T06:46:46;0.60;;;0.60;;
9124;SDS011;4597;48.730;9.114;2024-03-23T06:49:13;0.40;;;0.40;;
9124;SDS011;4597;48.730;9.114;2024-03-23T06:51:39;0.60;;;0.53;;
9124;SDS011;4597;48.730;9.114;2024-03-23T06:54:05;0.50;;;0.50;;
9124;SDS011;4597;48.730;9.114;2024-03-23T06:56:30;1.03;;;0.67;;
9124;SDS011;4597;48.730;9.114;2024-03-23T06:58:56;0.60;;;0.60;;
9124;SDS011;4597;48.730;9.114;2024-03-23T07:01:22;0.57;;;0.57;;
9124;SDS011;4597;48.730;9.114;2024-03-23T07:03:48;0.60;;;0.60;;
9124;SDS011;4597;48.730;9.114;2024-03-23T07:06:13;0.60;;;0.60;;
9124;SDS011;4597;48.730;9.114;2024-03-23T07:08:39;0.60;;;0.60;;
9124;SDS011;4597;48.730;9.114;2024-03-23T07:11:04;0.43;;;0.43;;
9124;SDS011;4597;48.730;9.114;2024-03-23T07:13:30;0.53;;;0.53;;
9124;SDS011;4597;48.730;9.114;2024-03-23T07:15:56;2.67;;;0.50;;
9124;SDS011;4597;48.730;9.114;2024-03-23T07:18:22;0.87;;;0.87;;
9124;SDS011;4597;48.730;9.114;2024-03-23T07:20:57;0.60;;;0.60;;
9124;SDS011;4597;48.730;9.114;2024-03-23T07:23:23;0.60;;;0.60;;
9124;SDS011;4597;48.730;9.114;2024-03-23T07:25:58;0.40;;;0.40;;
9124;SDS011;4597;48.730;9.114;2024-03-23T07:28:28;0.87;;;0.87;;
9124;SDS011;4597;48.730;9.114;2024-03-23T07:33:46;0.60;;;0.60;;
9124;SDS011;4597;48.730;9.114;2024-03-23T07:36:12;0.60;;;0.60;;
9124;SDS011;4597;48.730;9.114;2024-03-23T07:38:40;1.03;;;0.87;;
9124;SDS011;4597;48.730;9.114;2024-03-23T07:41:07;0.67;;;0.67;;
9124;SDS011;4597;48.730;9.114;2024-03-23T07:43:34;0.57;;;0.57;;
9124;SDS011;4597;48.730;9.114;2024-03-23T07:46:00;0.57;;;0.57;;
9124;SDS011;4597;48.730;9.114;2024-03-23T07:48:26;0.50;;;0.50;;
9124;SDS011;4597;48.730;9.114;2024-03-23T07:50:59;0.63;;;0.60;;
9124;SDS011;4597;48.730;9.114;2024-03-23T07:53:32;0.50;;;0.50;;
9124;SDS011;4597;48.730;9.114;2024-03-23T07:56:02;0.50;;;0.50;;
9124;SDS011;4597;48.730;9.114;2024-03-23T07:58:32;0.40;;;0.40;;
9124;SDS011;4597;48.730;9.114;2024-03-23T08:01:08;0.93;;;0.50;;
9124;SDS011;4597;48.730;9.114;2024-03-23T08:03:39;0.47;;;0.47;;
9124;SDS011;4597;48.730;9.114;2024-03-23T08:06:07;0.50;;;0.50;;
9124;SDS011;4597;48.730;9.114;2024-03-23T08:08:37;0.60;;;0.60;;
9124;SDS011;4597;48.730;9.114;2024-03-23T08:11:03;0.40;;;0.40;;
9124;SDS011;4597;48.730;9.114;2024-03-23T08:13:29;0.57;;;0.57;;
9124;SDS011;4597;48.730;9.114;2024-03-23T08:15:58;0.93;;;0.37;;
9124;SDS011;4597;48.730;9.114;2024-03-23T08:18:24;0.40;;;0.40;;
9124;SDS011;4597;48.730;9.114;2024-03-23T08:21:00;0.40;;;0.40;;
9124;SDS011;4597;48.730;9.114;2024-03-23T08:23:27;0.63;;;0.47;;
9124;SDS011;4597;48.730;9.114;2024-03-23T08:25:57;0.63;;;0.57;;
9124;SDS011;4597;48.730;9.114;2024-03-23T08:28:23;1.43;;;0.60;;
9124;SDS011;4597;48.730;9.114;2024-03-23T08:30:49;0.50;;;0.50;;
9124;SDS011;4597;48.730;9.114;2024-03-23T08:33:15;0.53;;;0.53;;
9124;SDS011;4597;48.730;9.114;2024-03-23T08:35:41;0.40;;;0.40;;
9124;SDS011;4597;48.730;9.114;2024-03-23T08:38:06;0.57;;;0.57;;
9124;SDS011;4597;48.730;9.114;2024-03-23T08:40:32;1.50;;;0.50;;
9124;SDS011;4597;48.730;9.114;2024-03-23T08:42:58;0.70;;;0.70;;
9124;SDS011;4597;48.730;9.114;2024-03-23T08:45:26;0.60;;;0.60;;
9124;SDS011;4597;48.730;9.114;2024-03-23T08:47:52;0.50;;;0.50;;
9124;SDS011;4597;48.730;9.114;2024-03-23T08:50:17;1.33;;;0.77;;
9124;SDS011;4597;48.730;9.114;2024-03-23T08:52:43;0.53;;;0.53;;
9124;SDS011;4597;48.730;9.114;2024-03-23T08:55:09;0.90;;;0.90;;
9124;SDS011;4597;48.730;9.114;2024-03-23T08:57:35;1.00;;;1.00;;
9124;SDS011;4597;48.730;9.114;2024-03-23T09:00:00;1.33;;;1.00;;
9124;SDS011;4597;48.730;9.114;2024-03-23T09:02:26;1.37;;;1.27;;
9124;SDS011;4597;48.730;9.114;2024-03-23T09:04:51;1.50;;;1.40;;
9124;SDS011;4597;48.730;9.114;2024-03-23T09:07:17;1.60;;;1.30;;
9124;SDS011;4597;48.730;9.114;2024-03-23T09:09:42;2.73;;;1.50;;
9124;SDS011;4597;48.730;9.114;2024-03-23T09:12:08;2.43;;;2.00;;
9124;SDS011;4597;48.730;9.114;2024-03-23T09:14:33;2.07;;;1.77;;
9124;SDS011;4597;48.730;9.114;2024-03-23T09:16:59;2.10;;;1.50;;
9124;SDS011;4597;48.730;9.114;2024-03-23T09:19:26;1.60;;;1.37;;
9124;SDS011;4597;48.730;9.114;2024-03-23T09:21:55;1.10;;;1.10;;
9124;SDS011;4597;48.730;9.114;2024-03-23T09:24:21;3.63;;;1.63;;
9124;SDS011;4597;48.730;9.114;2024-03-23T09:26:47;2.20;;;1.70;;
9124;SDS011;4597;48.730;9.114;2024-03-23T09:29:12;1.60;;;1.23;;
9124;SDS011;4597;48.730;9.114;2024-03-23T09:31:38;1.57;;;1.47;;
9124;SDS011;4597;48.730;9.114;2024-03-23T09:34:04;3.23;;;1.40;;
9124;SDS011;4597;48.730;9.114;2024-03-23T09:36:30;2.40;;;1.70;;
9124;SDS011;4597;48.730;9.114;2024-03-23T09:38:55;2.80;;;1.57;;
9124;SDS011;4597;48.730;9.114;2024-03-23T09:41:21;1.80;;;1.70;;
9124;SDS011;4597;48.730;9.114;2024-03-23T09:43:46;2.90;;;1.60;;
9124;SDS011;4597;48.730;9.114;2024-03-23T09:46:13;1.77;;;1.67;;
9124;SDS011;4597;48.730;9.114;2024-03-23T09:48:39;5.50;;;2.03;;
9124;SDS011;4597;48.730;9.114;2024-03-23T09:51:06;1.63;;;1.53;;
9124;SDS011;4597;48.730;9.114;2024-03-23T09:53:35;1.73;;;1.60;;
9124;SDS011;4597;48.730;9.114;2024-03-23T09:56:02;2.27;;;1.23;;
9124;SDS011;4597;48.730;9.114;2024-03-23T09:58:28;2.90;;;1.50;;
9124;SDS011;4597;48.730;9.114;2024-03-23T10:00:53;4.33;;;1.80;;
9124;SDS011;4597;48.730;9.114;2024-03-23T10:03:19;4.10;;;1.60;;
9124;SDS011;4597;48.730;9.114;2024-03-23T10:05:44;2.23;;;1.80;;
9124;SDS011;4597;48.730;9.114;2024-03-23T10:08:17;5.53;;;1.63;;
9124;SDS011;4597;48.730;9.114;2024-03-23T10:10:46;1.73;;;1.60;;
9124;SDS011;4597;48.730;9.114;2024-03-23T10:13:23;2.97;;;1.40;;
9124;SDS011;4597;48.730;9.114;2024-03-23T10:15:54;1.50;;;1.50;;
9124;SDS011;4597;48.730;9.114;2024-03-23T10:18:22;3.97;;;2.43;;
9124;SDS011;4597;48.730;9.114;2024-03-23T10:20:52;2.70;;;1.63;;
9124;SDS011;4597;48.730;9.114;2024-03-23T10:23:29;1.47;;;1.37;;
9124;SDS011;4597;48.730;9.114;2024-03-23T10:25:55;3.50;;;2.27;;
9124;SDS011;4597;48.730;9.114;2024-03-23T10:28:53;1.50;;;1.40;;
9124;SDS011;4597;48.730;9.114;2024-03-23T10:31:20;3.00;;;1.80;;
9124;SDS011;4597;48.730;9.114;2024-03-23T10:33:46;2.13;;;1.70;;
9124;SDS011;4597;48.730;9.114;2024-03-23T10:36:12;3.87;;;1.80;;
9124;SDS011;4597;48.730;9.114;2024-03-23T10:38:42;1.93;;;1.73;;
9124;SDS011;4597;48.730;9.114;2024-03-23T10:41:09;2.67;;;1.80;;
9124;SDS011;4597;48.730;9.114;2024-03-23T10:43:36;4.03;;;1.90;;
9124;SDS011;4597;48.730;9.114;2024-03-23T10:46:02;5.40;;;2.33;;
9124;SDS011;4597;48.730;9.114;2024-03-23T10:48:29;2.90;;;1.93;;
9124;SDS011;4597;48.730;9.114;2024-03-23T10:50:54;1.77;;;1.60;;
9124;SDS011;4597;48.730;9.114;2024-03-23T10:53:21;2.80;;;2.03;;
9124;SDS011;4597;48.730;9.114;2024-03-23T10:55:50;2.57;;;1.90;;
9124;SDS011;4597;48.730;9.114;2024-03-23T10:58:17;2.53;;;1.53;;
9124;SDS011;4597;48.730;9.114;2024-03-23T11:00:54;2.10;;;2.00;;
9124;SDS011;4597;48.730;9.114;2024-03-23T11:03:38;2.10;;;2.00;;
9124;SDS011;4597;48.730;9.114;2024-03-23T11:06:05;4.33;;;2.03;;
9124;SDS011;4597;48.730;9.114;2024-03-23T11:08:38;2.50;;;2.30;;
9124;SDS011;4597;48.730;9.114;2024-03-23T11:11:17;2.70;;;1.90;;
9124;SDS011;4597;48.730;9.114;2024-03-23T11:13:44;2.00;;;1.90;;
9124;SDS011;4597;48.730;9.114;2024-03-23T11:16:13;3.77;;;2.13;;
9124;SDS011;4597;48.730;9.114;2024-03-23T11:18:39;3.07;;;1.80;;
9124;SDS011;4597;48.730;9.114;2024-03-23T11:21:06;2.70;;;2.23;;
9124;SDS011;4597;48.730;9.114;2024-03-23T11:23:32;2.10;;;1.90;;
9124;SDS011;4597;48.730;9.114;2024-03-23T11:25:57;2.10;;;1.87;;
9124;SDS011;4597;48.730;9.114;2024-03-23T11:28:23;2.40;;;1.80;;
9124;SDS011;4597;48.730;9.114;2024-03-23T11:30:48;2.50;;;1.80;;
9124;SDS011;4597;48.730;9.114;2024-03-23T11:33:14;2.90;;;1.70;;
9124;SDS011;4597;48.730;9.114;2024-03-23T11:35:40;3.87;;;1.83;;
9124;SDS011;4597;48.730;9.114;2024-03-23T11:38:16;3.00;;;1.77;;
9124;SDS011;4597;48.730;9.114;2024-03-23T11:43:15;2.07;;;1.87;;
9124;SDS011;4597;48.730;9.114;2024-03-23T11:45:43;1.93;;;1.37;;
9124;SDS011;4597;48.730;9.114;2024-03-23T11:48:10;3.30;;;1.60;;
9124;SDS011;4597;48.730;9.114;2024-03-23T11:50:38;2.60;;;1.40;;
9124;SDS011;4597;48.730;9.114;2024-03-23T11:58:13;1.63;;;1.20;;
9124;SDS011;4597;48.730;9.114;2024-03-23T12:00:39;1.00;;;1.00;;
9124;SDS011;4597;48.730;9.114;2024-03-23T12:03:05;2.07;;;1.03;;
9124;SDS011;4597;48.730;9.114;2024-03-23T12:05:31;2.17;;;1.10;;
9124;SDS011;4597;48.730;9.114;2024-03-23T12:10:50;3.37;;;1.23;;
9124;SDS011;4597;48.730;9.114;2024-03-23T12:13:29;1.80;;;1.07;;
9124;SDS011;4597;48.730;9.114;2024-03-23T12:15:56;2.43;;;1.60;;
9124;SDS011;4597;48.730;9.114;2024-03-23T12:18:42;2.40;;;1.17;;
9124;SDS011;4597;48.730;9.114;2024-03-23T12:21:10;2.17;;;1.10;;
9124;SDS011;4597;48.730;9.114;2024-03-23T12:23:35;1.37;;;1.27;;
9124;SDS011;4597;48.730;9.114;2024-03-23T12:26:03;3.33;;;1.50;;
9124;SDS011;4597;48.730;9.114;2024-03-23T12:28:29;1.17;;;1.17;;
9124;SDS011;4597;48.730;9.114;2024-03-23T12:30:54;2.00;;;1.20;;
9124;SDS011;4597;48.730;9.114;2024-03-23T12:33:20;4.23;;;1.77;;
9124;SDS011;4597;48.730;9.114;2024-03-23T12:35:46;3.70;;;1.43;;
9124;SDS011;4597;48.730;9.114;2024-03-23T12:38:12;1.33;;;1.20;;
9124;SDS011;4597;48.730;9.114;2024-03-23T12:40:38;4.27;;;1.33;;
9124;SDS011;4597;48.730;9.114;2024-03-23T12:43:03;2.63;;;1.47;;
9124;SDS011;4597;48.730;9.114;2024-03-23T12:45:29;1.93;;;1.40;;
9124;SDS011;4597;48.730;9.114;2024-03-23T12:47:54;3.33;;;1.87;;
9124;SDS011;4597;48.730;9.114;2024-03-23T12:50:20;1.53;;;1.20;;
9124;SDS011;4597;48.730;9.114;2024-03-23T12:52:46;1.80;;;1.20;;
9124;SDS011;4597;48.730;9.114;2024-03-23T12:55:12;2.37;;;1.30;;
9124;SDS011;4597;48.730;9.114;2024-03-23T12:57:38;2.50;;;1.50;;
9124;SDS011;4597;48.730;9.114;2024-03-23T13:00:04;2.70;;;1.70;;
9124;SDS011;4597;48.730;9.114;2024-03-23T13:02:31;1.43;;;1.17;;
9124;SDS011;4597;48.730;9.114;2024-03-23T13:04:56;1.87;;;1.20;;
9124;SDS011;4597;48.730;9.114;2024-03-23T13:07:23;2.23;;;1.10;;
9124;SDS011;4597;48.730;9.114;2024-03-23T13:09:51;1.73;;;1.30;;
9124;SDS011;4597;48.730;9.114;2024-03-23T13:12:18;4.37;;;2.10;;
9124;SDS011;4597;48.730;9.114;2024-03-23T13:14:45;3.30;;;1.20;;
9124;SDS011;4597;48.730;9.114;2024-03-23T13:17:10;2.43;;;1.70;;
9124;SDS011;4597;48.730;9.114;2024-03-23T13:19:36;3.33;;;2.23;;
9124;SDS011;4597;48.730;9.114;2024-03-23T13:22:02;1.60;;;1.00;;
9124;SDS011;4597;48.730;9.114;2024-03-23T13:24:29;1.20;;;1.00;;
9124;SDS011;4597;48.730;9.114;2024-03-23T13:26:55;3.23;;;1.30;;
9124;SDS011;4597;48.730;9.114;2024-03-23T13:29:21;2.40;;;1.40;;
9124;SDS011;4597;48.730;9.114;2024-03-23T13:31:47;1.20;;;1.10;;
9124;SDS011;4597;48.730;9.114;2024-03-23T13:34:14;4.73;;;1.33;;
9124;SDS011;4597;48.730;9.114;2024-03-23T13:36:40;1.17;;;1.07;;
9124;SDS011;4597;48.730;9.114;2024-03-23T13:39:06;2.73;;;1.37;;
9124;SDS011;4597;48.730;9.114;2024-03-23T13:41:39;2.07;;;1.07;;
9124;SDS011;4597;48.730;9.114;2024-03-23T13:44:13;3.40;;;1.07;;
9124;SDS011;4597;48.730;9.114;2024-03-23T13:46:42;2.10;;;1.10;;
9124;SDS011;4597;48.730;9.114;2024-03-23T13:49:16;1.47;;;0.70;;
9124;SDS011;4597;48.730;9.114;2024-03-23T13:51:54;1.30;;;0.83;;
9124;SDS011;4597;48.730;9.114;2024-03-23T13:54:20;0.73;;;0.70;;
9124;SDS011;4597;48.730;9.114;2024-03-23T13:56:47;0.87;;;0.77;;
9124;SDS011;4597;48.730;9.114;2024-03-23T13:59:16;1.63;;;0.53;;
9124;SDS011;4597;48.730;9.114;2024-03-23T14:01:42;0.77;;;0.60;;
9124;SDS011;4597;48.730;9.114;2024-03-23T14:04:11;1.60;;;0.87;;
9124;SDS011;4597;48.730;9.114;2024-03-23T14:06:37;0.70;;;0.70;;
9124;SDS011;4597;48.730;9.114;2024-03-23T14:09:03;0.77;;;0.77;;
9124;SDS011;4597;48.730;9.114;2024-03-23T14:11:29;0.80;;;0.80;;
9124;SDS011;4597;48.730;9.114;2024-03-23T14:13:55;0.90;;;0.70;;
9124;SDS011;4597;48.730;9.114;2024-03-23T14:16:20;2.90;;;0.90;;
9124;SDS011;4597;48.730;9.114;2024-03-23T14:18:46;2.20;;;0.80;;
9124;SDS011;4597;48.730;9.114;2024-03-23T14:21:12;1.47;;;1.10;;
9124;SDS011;4597;48.730;9.114;2024-03-23T14:23:37;0.60;;;0.60;;
9124;SDS011;4597;48.730;9.114;2024-03-23T14:26:03;1.67;;;1.57;;
9124;SDS011;4597;48.730;9.114;2024-03-23T14:28:29;0.87;;;0.87;;
9124;SDS011;4597;48.730;9.114;2024-03-23T14:30:55;0.47;;;0.47;;
9124;SDS011;4597;48.730;9.114;2024-03-23T14:33:21;0.77;;;0.77;;
9124;SDS011;4597;48.730;9.114;2024-03-23T14:35:53;0.93;;;0.63;;
9124;SDS011;4597;48.730;9.114;2024-03-23T14:38:20;2.87;;;0.57;;
9124;SDS011;4597;48.730;9.114;2024-03-23T14:40:46;0.67;;;0.67;;
9124;SDS011;4597;48.730;9.114;2024-03-23T14:43:12;1.53;;;0.70;;
9124;SDS011;4597;48.730;9.114;2024-03-23T14:45:45;0.50;;;0.50;;
9124;SDS011;4597;48.730;9.114;2024-03-23T14:48:34;0.50;;;0.50;;
9124;SDS011;4597;48.730;9.114;2024-03-23T14:51:00;1.80;;;0.60;;
9124;SDS011;4597;48.730;9.114;2024-03-23T14:53:29;2.17;;;0.70;;
9124;SDS011;4597;48.730;9.114;2024-03-23T14:55:55;0.50;;;0.50;;
9124;SDS011;4597;48.730;9.114;2024-03-23T14:58:21;0.50;;;0.50;;
9124;SDS011;4597;48.730;9.114;2024-03-23T15:00:48;0.50;;;0.50;;
9124;SDS011;4597;48.730;9.114;2024-03-23T15:03:14;1.13;;;0.50;;
9124;SDS011;4597;48.730;9.114;2024-03-23T15:05:40;0.77;;;0.40;;
9124;SDS011;4597;48.730;9.114;2024-03-23T15:08:06;1.53;;;0.50;;
9124;SDS011;4597;48.730;9.114;2024-03-23T15:10:35;2.63;;;0.73;;
9124;SDS011;4597;48.730;9.114;2024-03-23T15:13:00;2.17;;;0.80;;
9124;SDS011;4597;48.730;9.114;2024-03-23T15:15:25;0.60;;;0.60;;
9124;SDS011;4597;48.730;9.114;2024-03-23T15:17:51;0.60;;;0.60;;
9124;SDS011;4597;48.730;9.114;2024-03-23T15:20:17;0.40;;;0.40;;
9124;SDS011;4597;48.730;9.114;2024-03-23T15:22:43;0.60;;;0.60;;
9124;SDS011;4597;48.730;9.114;2024-03-23T15:25:08;1.03;;;0.83;;
9124;SDS011;4597;48.730;9.114;2024-03-23T15:27:34;0.60;;;0.60;;
9124;SDS011;4597;48.730;9.114;2024-03-23T15:29:59;0.50;;;0.50;;
9124;SDS011;4597;48.730;9.114;2024-03-23T15:32:25;0.50;;;0.50;;
9124;SDS011;4597;48.730;9.114;2024-03-23T15:34:50;1.13;;;0.87;;
9124;SDS011;4597;48.730;9.114;2024-03-23T15:37:16;2.50;;;0.70;;
9124;SDS011;4597;48.730;9.114;2024-03-23T15:39:42;0.80;;;0.80;;
9124;SDS011;4597;48.730;9.114;2024-03-23T15:42:08;0.67;;;0.67;;
9124;SDS011;4597;48.730;9.114;2024-03-23T15:44:35;0.77;;;0.77;;
9124;SDS011;4597;48.730;9.114;2024-03-23T15:47:00;0.80;;;0.80;;
9124;SDS011;4597;48.730;9.114;2024-03-23T15:49:26;0.70;;;0.70;;
9124;SDS011;4597;48.730;9.114;2024-03-23T15:51:51;0.90;;;0.90;;
9124;SDS011;4597;48.730;9.114;2024-03-23T15:54:17;1.47;;;0.90;;
9124;SDS011;4597;48.730;9.114;2024-03-23T15:56:42;0.63;;;0.63;;
9124;SDS011;4597;48.730;9.114;2024-03-23T15:59:08;1.10;;;0.80;;
9124;SDS011;4597;48.730;9.114;2024-03-23T16:01:33;1.03;;;0.60;;
9124;SDS011;4597;48.730;9.114;2024-03-23T16:04:00;0.60;;;0.60;;
9124;SDS011;4597;48.730;9.114;2024-03-23T16:06:28;0.70;;;0.70;;
9124;SDS011;4597;48.730;9.114;2024-03-23T16:08:54;1.57;;;0.80;;
9124;SDS011;4597;48.730;9.114;2024-03-23T16:11:19;0.60;;;0.60;;
9124;SDS011;4597;48.730;9.114;2024-03-23T16:13:45;1.50;;;0.97;;
9124;SDS011;4597;48.730;9.114;2024-03-23T16:16:11;1.00;;;0.77;;
9124;SDS011;4597;48.730;9.114;2024-03-23T16:18:37;0.90;;;0.90;;
9124;SDS011;4597;48.730;9.114;2024-03-23T16:21:06;1.07;;;0.80;;
9124;SDS011;4597;48.730;9.114;2024-03-23T16:23:32;1.20;;;0.70;;